Time;durP1;ratioP1;P1;durP2;ratioP2;P2;SDS_P1;SDS_P2;PMS_P1;PMS_P2;Temp;Humidity;BMP_temperature;BMP_pressure;BME280_temperature;BME280_humidity;BME280_pressure;Samples;Min_cycle;Max_cycle;Signal;HPM_P1;HPM_P2
2022/04/10 00:00:49;;;;;;;10.23;4.40;;;;;;;0.60;100.00;96257.84;5013529;28;20048;-75
2022/04/10 00:03:15;;;;;;;6.03;3.30;;;;;;;0.62;100.00;96254.22;5043175;28;20379;-75
2022/04/10 00:05:40;;;;;;;7.80;2.93;;;;;;;0.60;100.00;96261.25;5048426;28;20482;-76
2022/04/10 00:08:06;;;;;;;9.27;3.17;;;;;;;0.61;100.00;96256.94;5029859;28;20460;-76
2022/04/10 00:10:32;;;;;;;6.43;3.07;;;;;;;0.61;100.00;96257.75;5029510;28;20053;-76
2022/04/10 00:12:58;;;;;;;10.40;3.47;;;;;;;0.57;100.00;96264.06;5046803;28;20509;-76
2022/04/10 00:15:24;;;;;;;8.00;3.67;;;;;;;0.64;100.00;96260.16;5044781;28;20447;-75
2022/04/10 00:17:50;;;;;;;7.17;3.13;;;;;;;0.64;100.00;96257.56;5025298;28;20031;-76
2022/04/10 00:20:15;;;;;;;6.67;2.90;;;;;;;0.67;100.00;96253.94;5027794;28;20126;-77
2022/04/10 00:22:47;;;;;;;5.60;3.17;;;;;;;0.63;100.00;96255.06;5022461;28;20036;-76
2022/04/10 00:25:17;;;;;;;5.57;3.27;;;;;;;0.64;100.00;96252.38;5008889;28;20041;-75
2022/04/10 00:27:43;;;;;;;8.33;3.40;;;;;;;0.64;100.00;96254.16;5040494;28;20442;-75
2022/04/10 00:30:11;;;;;;;8.60;3.50;;;;;;;0.61;100.00;96252.59;5038710;28;20478;-75
2022/04/10 00:32:37;;;;;;;8.83;4.33;;;;;;;0.65;100.00;96248.03;5044110;28;20679;-75
2022/04/10 00:35:05;;;;;;;7.23;2.97;;;;;;;0.62;100.00;96256.81;5016575;28;20472;-76
2022/04/10 00:37:32;;;;;;;6.07;2.67;;;;;;;0.63;100.00;96250.72;5024063;28;20474;-76
2022/04/10 00:39:58;;;;;;;8.93;2.87;;;;;;;0.53;100.00;96256.56;5052116;28;21096;-75
2022/04/10 00:42:30;;;;;;;5.93;2.80;;;;;;;0.53;100.00;96254.81;5032173;28;20455;-76
2022/04/10 00:44:56;;;;;;;7.05;3.38;;;;;;;0.45;100.00;96259.66;5005998;28;20028;-75
2022/04/10 00:47:22;;;;;;;5.20;2.63;;;;;;;0.48;100.00;96267.22;5023358;28;20052;-75
2022/04/10 00:49:48;;;;;;;8.90;3.63;;;;;;;0.39;100.00;96265.22;5009586;28;20588;-76
2022/04/10 00:52:14;;;;;;;7.27;2.53;;;;;;;0.39;100.00;96267.78;5016687;28;20029;-75
2022/04/10 00:54:40;;;;;;;7.40;2.37;;;;;;;0.35;100.00;96266.34;5029101;28;20429;-76
2022/04/10 00:57:06;;;;;;;8.53;3.33;;;;;;;0.39;100.00;96263.44;5024834;28;20466;-76
2022/04/10 00:59:32;;;;;;;7.17;3.10;;;;;;;0.39;100.00;96262.63;5014897;28;20037;-75
2022/04/10 01:01:58;;;;;;;6.10;2.57;;;;;;;0.34;100.00;96264.69;5021647;28;20452;-76
2022/04/10 01:04:25;;;;;;;6.80;2.50;;;;;;;0.32;100.00;96258.75;5027191;28;20040;-76
2022/04/10 01:06:52;;;;;;;6.23;2.53;;;;;;;0.29;100.00;96266.72;5011775;28;20455;-76
2022/04/10 01:09:20;;;;;;;8.93;2.70;;;;;;;0.35;100.00;96267.16;5028496;28;20554;-75
2022/04/10 01:11:46;;;;;;;8.70;3.00;;;;;;;0.35;100.00;96264.56;5010265;28;20454;-75
2022/04/10 01:14:13;;;;;;;8.33;2.90;;;;;;;0.32;100.00;96267.34;5018074;28;20577;-75
2022/04/10 01:16:39;;;;;;;8.87;2.73;;;;;;;0.32;100.00;96271.69;5020603;28;20467;-75
2022/04/10 01:19:07;;;;;;;5.80;2.47;;;;;;;0.29;100.00;96271.88;5012784;28;20547;-77
2022/04/10 01:21:40;;;;;;;6.13;2.97;;;;;;;0.26;100.00;96272.06;5021243;28;20469;-75
2022/04/10 01:24:09;;;;;;;8.40;3.13;;;;;;;0.32;100.00;96280.28;5013676;28;21019;-76
2022/04/10 01:26:35;;;;;;;6.70;3.27;;;;;;;0.37;100.00;96279.97;5025961;28;20463;-76
2022/04/10 01:29:04;;;;;;;6.60;3.50;;;;;;;0.40;100.00;96284.97;5009237;28;20463;-76
2022/04/10 01:31:34;;;;;;;8.30;3.33;;;;;;;0.44;100.00;96292.47;5026304;28;20475;-75
2022/04/10 01:34:03;;;;;;;7.57;3.13;;;;;;;0.39;100.00;96288.47;5026548;28;20463;-77
2022/04/10 01:36:30;;;;;;;8.37;3.13;;;;;;;0.41;100.00;96287.47;5032077;28;20552;-75
2022/04/10 01:38:58;;;;;;;6.50;3.40;;;;;;;0.42;100.00;96294.28;5022324;28;20559;-76
2022/04/10 01:41:27;;;;;;;11.03;3.40;;;;;;;0.46;100.00;96284.59;5042000;28;20527;-75
2022/04/10 01:43:57;;;;;;;6.77;3.47;;;;;;;0.48;100.00;96290.50;5009260;28;20471;-76
2022/04/10 01:46:26;;;;;;;9.37;3.77;;;;;;;0.45;100.00;96286.34;5036639;28;20557;-75
2022/04/10 01:48:51;;;;;;;8.67;3.43;;;;;;;0.52;100.00;96288.56;5033240;28;20526;-77
2022/04/10 01:51:17;;;;;;;10.53;3.40;;;;;;;0.50;100.00;96291.22;5003248;28;21010;-76
2022/04/10 01:53:43;;;;;;;8.53;3.70;;;;;;;0.52;100.00;96298.91;5021866;28;20421;-76
2022/04/10 01:56:10;;;;;;;5.43;3.33;;;;;;;0.55;100.00;96298.72;5008195;28;20456;-76
2022/04/10 01:58:41;;;;;;;5.70;3.13;;;;;;;0.58;100.00;96301.94;5045752;28;20037;-76
2022/04/10 02:01:09;;;;;;;7.90;3.60;;;;;;;0.64;100.00;96298.16;5012995;28;21243;-76
2022/04/10 02:03:36;;;;;;;7.90;3.47;;;;;;;0.62;100.00;96295.63;5029976;28;20577;-77
2022/04/10 02:06:03;;;;;;;6.33;3.20;;;;;;;0.67;100.00;96292.75;5057526;28;20442;-75
2022/04/10 02:08:30;;;;;;;7.63;3.33;;;;;;;0.67;100.00;96297.91;5036141;28;20560;-76
2022/04/10 02:10:57;;;;;;;10.93;4.33;;;;;;;0.70;100.00;96295.16;5017065;28;20459;-74
2022/04/10 02:13:23;;;;;;;5.27;3.37;;;;;;;0.76;100.00;96291.34;5028849;28;20486;-75
2022/04/10 02:15:49;;;;;;;6.77;4.13;;;;;;;0.73;100.00;96291.53;5020768;28;20460;-75
2022/04/10 02:18:15;;;;;;;7.57;3.73;;;;;;;0.65;100.00;96287.69;5026868;28;20468;-76
2022/04/10 02:20:41;;;;;;;6.43;3.00;;;;;;;0.62;100.00;96289.63;5048614;28;20021;-75
2022/04/10 02:23:07;;;;;;;7.87;3.97;;;;;;;0.62;100.00;96290.47;5029041;28;20417;-75
2022/04/10 02:25:33;;;;;;;9.00;4.10;;;;;;;0.53;100.00;96291.03;5024120;28;20075;-75
2022/04/10 02:27:59;;;;;;;8.17;3.67;;;;;;;0.57;100.00;96292.53;5035800;28;20475;-75
2022/04/10 02:30:25;;;;;;;10.57;3.63;;;;;;;0.48;100.00;96298.28;5014131;28;20064;-76
2022/04/10 02:32:50;;;;;;;8.77;4.30;;;;;;;0.44;100.00;96289.88;5012031;28;20029;-75
2022/04/10 02:35:16;;;;;;;8.10;3.87;;;;;;;0.44;100.00;96291.63;5043908;28;20463;-75
2022/04/10 02:37:45;;;;;;;8.37;3.90;;;;;;;0.40;100.00;96293.59;5047173;28;20495;-75
2022/04/10 02:40:16;;;;;;;9.33;3.97;;;;;;;0.46;100.00;96288.00;5014120;28;20052;-75
2022/04/10 02:42:43;;;;;;;9.03;4.33;;;;;;;0.40;100.00;96290.13;5029731;28;20553;-75
2022/04/10 02:45:11;;;;;;;9.63;4.13;;;;;;;0.37;100.00;96279.97;5010683;28;20451;-75
2022/04/10 02:47:37;;;;;;;8.23;4.10;;;;;;;0.38;100.00;96286.84;5027431;28;20480;-75
2022/04/10 02:50:05;;;;;;;6.83;3.57;;;;;;;0.34;100.00;96286.19;5027893;28;21096;-75
2022/04/10 02:52:31;;;;;;;12.83;6.37;;;;;;;0.33;100.00;96297.44;5013764;28;20440;-76
2022/04/10 02:54:57;;;;;;;7.17;4.03;;;;;;;0.21;100.00;96293.88;5029186;28;21051;-75
2022/04/10 02:57:23;;;;;;;8.00;4.20;;;;;;;0.20;100.00;96304.31;5030534;28;20559;-76
2022/04/10 02:59:48;;;;;;;11.83;4.80;;;;;;;0.14;100.00;96300.34;5030718;28;20056;-75
2022/04/10 03:02:14;;;;;;;11.07;4.63;;;;;;;0.06;100.00;96310.31;5027907;28;20033;-75
2022/04/10 03:04:40;;;;;;;11.00;4.37;;;;;;;0.09;100.00;96304.97;5010243;28;20148;-75
2022/04/10 03:07:06;;;;;;;8.93;4.10;;;;;;;0.02;100.00;96298.50;5014240;28;20090;-75
2022/04/10 03:09:32;;;;;;;8.73;4.40;;;;;;;-0.01;100.00;96296.09;5013437;28;20925;-75
2022/04/10 03:11:58;;;;;;;8.20;4.37;;;;;;;-0.06;100.00;96295.56;5050397;28;20502;-75
2022/04/10 03:14:24;;;;;;;9.97;4.30;;;;;;;-0.14;100.00;96301.19;5040522;28;20036;-76
2022/04/10 03:16:50;;;;;;;7.47;4.00;;;;;;;-0.10;100.00;96310.44;5005881;28;20032;-76
2022/04/10 03:19:17;;;;;;;9.20;4.57;;;;;;;-0.14;100.00;96314.09;5019901;28;20026;-76
2022/04/10 03:21:43;;;;;;;8.50;4.50;;;;;;;-0.14;100.00;96310.69;5024012;28;20524;-75
2022/04/10 03:24:08;;;;;;;10.83;5.30;;;;;;;-0.18;100.00;96314.38;5044655;28;20031;-76
2022/04/10 03:26:34;;;;;;;9.13;5.30;;;;;;;-0.13;100.00;96318.38;5031718;28;20039;-75
2022/04/10 03:29:00;;;;;;;9.77;5.00;;;;;;;-0.24;100.00;96310.41;5050636;28;20033;-76
2022/04/10 03:31:26;;;;;;;8.63;4.43;;;;;;;-0.27;100.00;96320.91;5051790;28;20443;-75
2022/04/10 03:33:54;;;;;;;9.77;5.00;;;;;;;-0.32;100.00;96318.63;5043052;28;20377;-75
2022/04/10 03:36:20;;;;;;;9.73;4.93;;;;;;;-0.34;100.00;96315.28;5019061;28;20505;-75
2022/04/10 03:38:46;;;;;;;11.77;5.90;;;;;;;-0.41;100.00;96323.50;5031213;28;20455;-76
2022/04/10 03:41:12;;;;;;;14.73;5.70;;;;;;;-0.38;100.00;96326.72;5019933;28;20489;-75
2022/04/10 03:43:38;;;;;;;9.90;5.53;;;;;;;-0.42;100.00;96325.25;5024015;28;20458;-76
2022/04/10 03:46:05;;;;;;;10.40;5.50;;;;;;;-0.34;100.00;96325.63;5031248;28;20024;-75
2022/04/10 03:48:30;;;;;;;11.20;5.47;;;;;;;-0.30;100.00;96332.28;5029132;28;20451;-75
2022/04/10 03:50:56;;;;;;;11.33;5.63;;;;;;;-0.32;100.00;96339.28;5030303;28;20978;-75
2022/04/10 03:53:22;;;;;;;11.20;5.43;;;;;;;-0.33;100.00;96334.22;5030504;28;20033;-76
2022/04/10 03:55:48;;;;;;;11.13;5.53;;;;;;;-0.39;100.00;96342.34;5028450;28;20899;-75
2022/04/10 03:58:15;;;;;;;9.50;5.37;;;;;;;-0.46;100.00;96339.28;5030902;28;20028;-74
2022/04/10 04:00:44;;;;;;;8.63;5.33;;;;;;;-0.45;100.00;96345.25;5012985;28;20460;-75
2022/04/10 04:03:13;;;;;;;9.60;4.80;;;;;;;-0.50;100.00;96351.53;5026603;28;20456;-75
2022/04/10 04:05:40;;;;;;;12.33;5.90;;;;;;;-0.45;100.00;96347.84;5014790;28;20463;-75
2022/04/10 04:08:10;;;;;;;11.77;5.80;;;;;;;-0.52;100.00;96347.38;5030913;28;20517;-75
2022/04/10 04:10:36;;;;;;;9.63;5.70;;;;;;;-0.55;100.00;96348.38;5036321;28;20481;-75
2022/04/10 04:13:04;;;;;;;9.17;5.13;;;;;;;-0.59;100.00;96353.81;5038565;28;20625;-75
2022/04/10 04:15:30;;;;;;;11.10;5.57;;;;;;;-0.59;100.00;96356.41;5030629;28;21124;-75
2022/04/10 04:17:58;;;;;;;12.47;6.00;;;;;;;-0.61;100.00;96358.22;5018471;28;20452;-75
2022/04/10 04:20:23;;;;;;;9.20;4.97;;;;;;;-0.67;100.00;96362.00;5012275;28;20458;-76
2022/04/10 04:22:50;;;;;;;8.83;5.60;;;;;;;-0.64;100.00;96368.72;5029533;28;20051;-76
2022/04/10 04:25:17;;;;;;;9.73;5.57;;;;;;;-0.66;100.00;96375.75;5025346;28;20973;-75
2022/04/10 04:27:44;;;;;;;15.50;7.30;;;;;;;-0.63;100.00;96380.75;5031222;28;20086;-74
2022/04/10 04:30:11;;;;;;;11.30;5.37;;;;;;;-0.66;100.00;96371.41;5028405;28;20570;-75
2022/04/10 04:32:40;;;;;;;11.70;5.63;;;;;;;-0.63;100.00;96380.75;5020744;28;20521;-75
2022/04/10 04:35:06;;;;;;;15.77;7.47;;;;;;;-0.63;100.00;96376.41;5044576;28;20847;-75
2022/04/10 04:37:39;;;;;;;17.03;9.43;;;;;;;-0.63;100.00;96389.31;5009946;28;20657;-75
2022/04/10 04:40:08;;;;;;;8.18;4.35;;;;;;;-0.75;100.00;96397.75;5038852;28;20463;-75
2022/04/10 04:42:34;;;;;;;11.30;5.43;;;;;;;-0.69;100.00;96399.16;5034394;28;20405;-76
2022/04/10 04:44:59;;;;;;;11.53;6.10;;;;;;;-0.67;100.00;96399.88;5010036;28;20809;-75
2022/04/10 04:47:25;;;;;;;10.47;5.87;;;;;;;-0.72;100.00;96402.75;5028797;28;20036;-76
2022/04/10 04:49:51;;;;;;;12.53;7.13;;;;;;;-0.73;100.00;96401.91;5030352;28;20028;-76
2022/04/10 04:52:18;;;;;;;10.47;6.43;;;;;;;-0.77;100.00;96403.00;5029635;28;21365;-75
2022/04/10 04:54:45;;;;;;;13.40;6.50;;;;;;;-0.78;100.00;96403.91;5012468;28;20487;-76
2022/04/10 04:57:11;;;;;;;11.13;6.17;;;;;;;-0.73;100.00;96406.25;5029762;28;20995;-75
2022/04/10 04:59:40;;;;;;;12.63;6.67;;;;;;;-0.68;100.00;96411.97;5029624;28;20504;-77
2022/04/10 05:02:06;;;;;;;11.03;6.33;;;;;;;-0.62;100.00;96421.16;5013120;28;20474;-75
2022/04/10 05:04:33;;;;;;;12.07;6.73;;;;;;;-0.60;100.00;96416.72;5017979;28;20061;-76
2022/04/10 05:06:59;;;;;;;13.30;6.97;;;;;;;-0.62;100.00;96418.56;5006651;28;20443;-75
2022/04/10 05:09:25;;;;;;;10.07;6.23;;;;;;;-0.55;100.00;96423.28;5028644;28;21065;-75
2022/04/10 05:11:50;;;;;;;10.60;6.00;;;;;;;-0.56;100.00;96423.38;5025102;28;20042;-76
2022/04/10 05:14:19;;;;;;;11.47;5.90;;;;;;;-0.51;100.00;96427.34;5018048;28;20045;-75
2022/04/10 05:16:45;;;;;;;11.80;5.57;;;;;;;-0.26;100.00;96429.38;5012146;28;20546;-76
2022/04/10 05:19:11;;;;;;;8.47;5.13;;;;;;;-0.22;100.00;96440.38;5008914;28;20606;-75
2022/04/10 05:21:38;;;;;;;9.80;5.37;;;;;;;-0.08;100.00;96440.41;5004228;28;20553;-75
2022/04/10 05:24:05;;;;;;;9.83;5.47;;;;;;;0.14;100.00;96442.59;5006931;28;20517;-75
2022/04/10 05:26:30;;;;;;;12.03;6.60;;;;;;;0.20;100.00;96439.63;5023182;28;20021;-75
2022/04/10 05:28:59;;;;;;;8.63;5.03;;;;;;;0.37;100.00;96448.13;5025675;28;20880;-76
2022/04/10 05:31:25;;;;;;;12.37;5.50;;;;;;;0.59;100.00;96456.28;5029173;28;20448;-75
2022/04/10 05:33:51;;;;;;;9.10;5.43;;;;;;;0.62;100.00;96450.91;5008604;28;20561;-75
2022/04/10 05:36:20;;;;;;;9.40;5.43;;;;;;;0.73;100.00;96458.03;5025139;28;20028;-76
2022/04/10 05:38:47;;;;;;;10.80;5.37;;;;;;;0.88;100.00;96457.09;5023989;28;20459;-75
2022/04/10 05:41:15;;;;;;;9.67;4.40;;;;;;;1.12;100.00;96465.09;5028398;28;20467;-75
2022/04/10 05:43:46;;;;;;;7.97;4.27;;;;;;;1.21;100.00;96461.13;5028396;28;20456;-75
2022/04/10 05:46:13;;;;;;;7.30;4.17;;;;;;;1.31;100.00;96469.16;5028275;28;21048;-75
2022/04/10 05:48:39;;;;;;;8.50;4.77;;;;;;;1.39;100.00;96469.47;5027904;28;20483;-75
2022/04/10 05:51:09;;;;;;;8.67;4.70;;;;;;;1.51;100.00;96471.31;5012528;28;20506;-76
2022/04/10 05:53:36;;;;;;;8.53;5.00;;;;;;;1.44;100.00;96474.34;5003756;28;20466;-76
2022/04/10 05:56:03;;;;;;;7.37;4.47;;;;;;;1.54;100.00;96478.88;5008466;28;21008;-75
2022/04/10 05:58:35;;;;;;;9.77;4.13;;;;;;;1.83;100.00;96476.16;5025112;28;20581;-75
2022/04/10 06:01:02;;;;;;;9.27;4.50;;;;;;;1.92;100.00;96475.56;5014838;28;20549;-75
2022/04/10 06:03:28;;;;;;;7.60;4.73;;;;;;;2.18;100.00;96481.66;5010321;28;20436;-75
2022/04/10 06:05:56;;;;;;;12.73;6.83;;;;;;;2.24;100.00;96486.41;5033173;28;20489;-76
2022/04/10 06:08:27;;;;;;;9.33;4.20;;;;;;;2.33;100.00;96483.22;5043125;28;21037;-75
2022/04/10 06:10:53;;;;;;;8.97;4.53;;;;;;;2.63;100.00;96489.03;5008031;28;20511;-75
2022/04/10 06:13:20;;;;;;;6.97;3.50;;;;;;;2.71;100.00;96486.75;5027560;28;20448;-76
2022/04/10 06:15:56;;;;;;;9.50;3.63;;;;;;;2.81;100.00;96493.78;5013094;28;20551;-76
2022/04/10 06:18:23;;;;;;;7.33;4.00;;;;;;;2.99;100.00;96494.31;5028058;28;21133;-76
2022/04/10 06:20:49;;;;;;;6.30;3.63;;;;;;;3.32;100.00;96500.69;5024185;28;20555;-76
2022/04/10 06:23:15;;;;;;;8.43;4.20;;;;;;;3.43;100.00;96499.94;5007868;28;20627;-76
2022/04/10 06:25:43;;;;;;;7.03;3.83;;;;;;;3.90;100.00;96501.72;5025917;28;20086;-76
2022/04/10 06:28:12;;;;;;;7.67;4.13;;;;;;;3.94;100.00;96500.56;5011954;28;20067;-76
2022/04/10 06:30:45;;;;;;;7.00;3.83;;;;;;;3.54;100.00;96498.22;5013577;28;20057;-77
2022/04/10 06:33:14;;;;;;;6.63;3.70;;;;;;;4.04;100.00;96502.50;5028006;28;20029;-77
2022/04/10 06:35:40;;;;;;;6.67;3.77;;;;;;;4.18;100.00;96499.69;5028253;28;20021;-77
2022/04/10 06:38:07;;;;;;;7.57;3.90;;;;;;;4.08;100.00;96509.94;5021287;28;20041;-77
2022/04/10 06:40:33;;;;;;;9.83;4.10;;;;;;;3.69;100.00;96517.13;5028795;28;20021;-77
2022/04/10 06:43:00;;;;;;;8.00;5.13;;;;;;;3.52;100.00;96514.88;5031068;28;20111;-77
2022/04/10 06:46:04;;;;;;;8.73;4.17;;;;;;;3.48;100.00;96513.44;5028954;28;20068;-77
2022/04/10 06:48:35;;;;;;;7.55;4.20;;;;;;;3.30;100.00;96523.38;5039498;28;20112;-78
2022/04/10 06:51:03;;;;;;;9.67;4.10;;;;;;;3.02;100.00;96520.09;5032096;28;20693;-77
2022/04/10 06:53:29;;;;;;;8.63;4.27;;;;;;;2.73;100.00;96519.47;5029618;28;20095;-77
2022/04/10 06:55:56;;;;;;;8.87;4.57;;;;;;;2.93;100.00;96520.72;5027509;28;20068;-76
2022/04/10 06:58:22;;;;;;;7.60;3.73;;;;;;;3.06;100.00;96524.13;5031631;28;20948;-76
2022/04/10 07:00:50;;;;;;;7.23;4.17;;;;;;;2.87;100.00;96521.13;5031935;28;20561;-76
2022/04/10 07:03:16;;;;;;;10.53;4.43;;;;;;;3.03;100.00;96516.53;5047453;28;20115;-77
2022/04/10 07:05:42;;;;;;;8.43;4.47;;;;;;;3.05;100.00;96527.69;5026470;28;20087;-77
2022/04/10 07:08:15;;;;;;;7.93;4.68;;;;;;;3.16;100.00;96529.53;5025099;28;20057;-76
2022/04/10 07:10:42;;;;;;;10.73;5.43;;;;;;;3.13;100.00;96521.13;5019814;28;20118;-76
2022/04/10 07:13:08;;;;;;;9.33;5.50;;;;;;;3.36;100.00;96525.53;5024774;28;20033;-78
2022/04/10 07:15:35;;;;;;;7.37;4.23;;;;;;;3.82;100.00;96526.63;5022305;28;20032;-77
2022/04/10 07:18:03;;;;;;;8.03;4.40;;;;;;;4.32;100.00;96537.72;5031036;28;20080;-76
2022/04/10 07:20:29;;;;;;;9.00;4.93;;;;;;;4.14;100.00;96537.31;5025498;28;20029;-77
2022/04/10 07:25:42;;;;;;;7.17;3.83;;;;;;;5.38;100.00;96528.75;5029175;28;20082;-76
2022/04/10 07:28:09;;;;;;;7.20;4.00;;;;;;;6.32;100.00;96519.50;5025549;28;20028;-77
2022/04/10 07:30:43;;;;;;;7.68;3.78;;;;;;;5.62;100.00;96522.56;5025294;28;20240;-77
2022/04/10 07:33:14;;;;;;;6.30;3.23;;;;;;;5.28;100.00;96522.59;5027364;28;20090;-77
2022/04/10 07:35:45;;;;;;;7.07;4.10;;;;;;;5.12;100.00;96532.53;5031746;28;20102;-77
2022/04/10 07:38:17;;;;;;;21.87;11.77;;;;;;;5.25;100.00;96535.88;5030519;28;20037;-77
2022/04/10 07:40:44;;;;;;;7.47;4.10;;;;;;;5.11;100.00;96529.13;5025716;28;20025;-77
2022/04/10 07:43:14;;;;;;;5.37;3.20;;;;;;;4.87;100.00;96531.00;5030559;28;20547;-77
2022/04/10 07:48:32;;;;;;;8.80;3.87;;;;;;;5.39;100.00;96540.84;5024730;28;20021;-78
2022/04/10 07:51:00;;;;;;;9.07;4.00;;;;;;;5.72;100.00;96541.75;5029651;28;20087;-77
2022/04/10 07:53:41;;;;;;;7.87;3.90;;;;;;;5.89;100.00;96545.63;5004259;28;20035;-76
2022/04/10 07:56:07;;;;;;;5.87;3.30;;;;;;;6.06;98.56;96536.47;5012199;28;20033;-75
2022/04/10 07:58:33;;;;;;;4.90;2.60;;;;;;;6.21;87.74;96544.84;5012266;28;20029;-75
2022/04/10 08:01:08;;;;;;;6.40;2.73;;;;;;;5.72;85.43;96544.34;5011697;28;20112;-77
2022/04/10 08:03:34;;;;;;;5.57;2.57;;;;;;;5.72;83.65;96546.97;5012469;28;20125;-77
2022/04/10 08:06:22;;;;;;;7.73;4.03;;;;;;;6.09;82.05;96544.06;5026149;28;20029;-77
2022/04/10 08:08:51;;;;;;;6.10;2.50;;;;;;;5.85;82.87;96542.44;5012714;28;20035;-79
2022/04/10 08:11:17;;;;;;;6.83;2.87;;;;;;;6.04;76.53;96544.44;5025699;28;20037;-77
2022/04/10 08:13:42;;;;;;;8.10;2.70;;;;;;;6.28;76.66;96544.22;5029151;28;20029;-78
2022/04/10 08:16:08;;;;;;;6.33;2.27;;;;;;;6.31;77.43;96549.19;5029653;28;20047;-76
2022/04/10 08:18:34;;;;;;;6.47;2.77;;;;;;;5.95;76.63;96549.56;5029702;28;20119;-77
2022/04/10 08:21:00;;;;;;;6.97;2.33;;;;;;;5.88;75.94;96552.63;5042184;28;20033;-77
2022/04/10 08:23:26;;;;;;;4.57;2.17;;;;;;;5.85;76.35;96555.47;5036665;28;20034;-77
2022/04/10 08:25:52;;;;;;;6.03;2.57;;;;;;;5.64;77.63;96557.19;5029493;28;20248;-77
2022/04/10 08:28:18;;;;;;;3.80;1.80;;;;;;;6.00;75.00;96556.09;5041090;28;20957;-78
2022/04/10 08:30:44;;;;;;;4.77;2.00;;;;;;;6.06;73.50;96559.97;5031087;28;20068;-77
2022/04/10 08:33:10;;;;;;;8.30;2.10;;;;;;;6.14;69.96;96557.59;5048139;28;20529;-76
2022/04/10 08:35:36;;;;;;;6.67;2.00;;;;;;;6.70;70.68;96564.34;5030675;28;20089;-76
2022/04/10 08:38:02;;;;;;;6.07;2.20;;;;;;;6.84;65.64;96561.38;5009564;28;20095;-77
2022/04/10 08:40:31;;;;;;;4.37;1.87;;;;;;;7.26;63.42;96556.13;5024647;28;20037;-75
2022/04/10 08:42:59;;;;;;;7.40;1.83;;;;;;;6.73;62.40;96564.91;5045843;28;20041;-77
2022/04/10 08:45:27;;;;;;;6.63;1.67;;;;;;;6.07;63.99;96572.06;5029042;28;20029;-78
2022/04/10 08:47:54;;;;;;;8.07;1.63;;;;;;;6.06;62.98;96566.00;5044450;28;20650;-79
2022/04/10 08:50:19;;;;;;;5.70;1.80;;;;;;;5.99;63.17;96579.69;5016115;28;20037;-78
2022/04/10 08:52:46;;;;;;;4.87;1.53;;;;;;;6.19;61.54;96580.69;5047617;28;20029;-78
2022/04/10 08:55:11;;;;;;;6.37;2.17;;;;;;;6.21;60.46;96578.81;5043317;28;20027;-78
2022/04/10 08:57:37;;;;;;;5.17;1.60;;;;;;;6.51;59.10;96578.94;5013947;28;20045;-77
2022/04/10 09:00:05;;;;;;;6.57;2.07;;;;;;;7.06;56.34;96581.34;5030249;28;20060;-79
2022/04/10 09:02:30;;;;;;;5.97;2.20;;;;;;;6.65;56.90;96579.56;5024597;28;20119;-78
2022/04/10 09:04:56;;;;;;;3.83;1.50;;;;;;;7.19;57.62;96576.75;5026877;28;20083;-78
2022/04/10 09:07:22;;;;;;;5.93;1.60;;;;;;;6.95;55.64;96590.09;5029229;28;20111;-78
2022/04/10 09:09:56;;;;;;;2.97;1.50;;;;;;;7.14;56.04;96589.38;5009352;28;20039;-78
2022/04/10 09:12:22;;;;;;;6.17;1.60;;;;;;;7.08;55.69;96579.44;5007107;28;20037;-78
2022/04/10 09:14:50;;;;;;;4.83;1.80;;;;;;;6.73;56.11;96585.00;5050295;28;20037;-77
2022/04/10 09:17:23;;;;;;;4.60;1.87;;;;;;;6.51;58.77;96581.53;5030308;28;20509;-77
2022/04/10 09:19:51;;;;;;;4.88;1.95;;;;;;;6.24;58.11;96579.38;5026523;28;20029;-77
2022/04/10 09:22:30;;;;;;;5.60;1.97;;;;;;;6.29;61.62;96587.66;5045811;28;20486;-77
2022/04/10 09:25:11;;;;;;;4.60;2.17;;;;;;;6.14;59.48;96581.91;5025355;28;20020;-76
2022/04/10 09:27:38;;;;;;;4.93;1.83;;;;;;;6.22;60.65;96588.28;5037866;28;20088;-77
2022/04/10 09:30:06;;;;;;;4.80;1.57;;;;;;;5.76;64.67;96591.91;5027076;28;20025;-77
2022/04/10 09:32:39;;;;;;;4.73;2.10;;;;;;;5.96;67.09;96596.41;5039515;28;20508;-78
2022/04/10 09:35:06;;;;;;;6.97;1.80;;;;;;;6.01;66.23;96601.28;5043803;28;20063;-76
2022/04/10 09:37:40;;;;;;;5.20;1.83;;;;;;;6.50;63.76;96589.47;5008091;28;20092;-76
2022/04/10 09:40:41;;;;;;;3.63;1.60;;;;;;;6.36;61.89;96588.81;5010103;28;20029;-76
2022/04/10 09:43:10;;;;;;;8.47;1.87;;;;;;;6.67;62.07;96585.50;4963549;28;20141;-78
2022/04/10 09:45:39;;;;;;;4.60;2.17;;;;;;;6.32;61.41;96587.41;5026450;28;20072;-76
2022/04/10 09:48:21;;;;;;;3.97;1.80;;;;;;;6.64;62.98;96594.44;5033173;28;20607;-77
2022/04/10 09:50:49;;;;;;;6.00;2.10;;;;;;;7.17;60.76;96586.50;5040539;28;20040;-77
2022/04/10 09:53:15;;;;;;;3.67;1.70;;;;;;;8.02;57.98;96580.91;4994597;28;20048;-76
2022/04/10 09:55:43;;;;;;;6.50;1.80;;;;;;;7.59;57.55;96575.13;5025881;28;20041;-77
2022/04/10 09:58:11;;;;;;;4.93;2.73;;;;;;;7.17;57.54;96578.66;5028254;28;20029;-77
2022/04/10 10:00:39;;;;;;;9.70;3.27;;;;;;;7.65;57.12;96574.63;5024608;28;20035;-77
2022/04/10 10:03:06;;;;;;;6.30;2.33;;;;;;;7.55;57.25;96582.44;5012103;28;20543;-77
2022/04/10 10:05:33;;;;;;;5.07;2.00;;;;;;;7.53;57.54;96584.34;5007932;28;20037;-77
2022/04/10 10:08:00;;;;;;;6.20;2.03;;;;;;;7.87;58.62;96586.66;5045674;28;20037;-77
2022/04/10 10:10:29;;;;;;;14.70;7.57;;;;;;;7.70;56.26;96583.72;5003884;28;20072;-77
2022/04/10 10:12:57;;;;;;;9.50;4.13;;;;;;;8.32;56.27;96575.72;4990568;28;20439;-77
2022/04/10 10:15:23;;;;;;;12.13;5.70;;;;;;;7.62;57.09;96583.56;5012877;28;20064;-77
2022/04/10 10:17:51;;;;;;;6.13;2.47;;;;;;;7.29;58.16;96588.09;5009410;28;20037;-78
2022/04/10 10:20:18;;;;;;;5.50;2.20;;;;;;;7.09;58.77;96587.16;4975897;28;20086;-77
2022/04/10 10:22:44;;;;;;;6.60;2.43;;;;;;;6.76;58.92;96588.19;4978003;28;20084;-77
2022/04/10 10:25:16;;;;;;;5.27;2.20;;;;;;;7.11;58.37;96589.66;4990675;28;20049;-77
2022/04/10 10:27:50;;;;;;;7.17;2.40;;;;;;;7.12;59.61;96587.88;5016075;28;20037;-77
2022/04/10 10:30:31;;;;;;;5.30;1.83;;;;;;;6.89;58.97;96581.94;4985824;28;20037;-77
2022/04/10 10:33:17;;;;;;;7.90;2.47;;;;;;;6.89;60.79;96590.59;5007060;28;20094;-77
2022/04/10 10:35:48;;;;;;;6.13;2.60;;;;;;;6.77;62.32;96591.63;5013466;28;20552;-76
2022/04/10 10:38:31;;;;;;;6.07;2.10;;;;;;;6.91;60.19;96583.47;5045408;28;20029;-77
2022/04/10 10:41:30;;;;;;;3.80;1.40;;;;;;;6.77;61.11;96586.38;5019560;28;20497;-77
2022/04/10 10:43:56;;;;;;;6.93;2.53;;;;;;;6.78;62.24;96588.88;5014317;28;20028;-77
2022/04/10 10:46:32;;;;;;;5.03;2.20;;;;;;;6.55;61.91;96597.78;5055032;28;20029;-77
2022/04/10 10:49:19;;;;;;;7.20;2.47;;;;;;;6.59;62.61;96594.78;5028576;28;20040;-77
2022/04/10 10:51:46;;;;;;;5.90;2.33;;;;;;;6.37;63.01;96600.09;5038899;28;20040;-77
2022/04/10 10:54:20;;;;;;;7.17;2.10;;;;;;;6.41;64.37;96587.66;5030679;28;20638;-77
2022/04/10 10:56:47;;;;;;;5.97;1.97;;;;;;;6.60;64.25;96595.63;5030506;28;20738;-78
2022/04/10 10:59:39;;;;;;;6.17;2.13;;;;;;;6.47;62.86;96587.97;5025862;28;20560;-78
2022/04/10 11:02:19;;;;;;;6.47;2.40;;;;;;;6.77;63.48;96587.25;5043668;28;20121;-77
2022/04/10 11:04:50;;;;;;;6.70;2.20;;;;;;;6.56;64.26;96591.59;5011064;28;20029;-77
2022/04/10 11:07:19;;;;;;;5.70;2.40;;;;;;;6.81;62.31;96587.81;5043502;28;20029;-77
2022/04/10 11:10:04;;;;;;;4.83;2.07;;;;;;;6.81;62.64;96588.63;5016846;28;20064;-78
2022/04/10 11:12:51;;;;;;;4.27;1.73;;;;;;;7.23;63.18;96593.84;5030937;28;20048;-77
2022/04/10 11:15:19;;;;;;;5.23;2.20;;;;;;;7.72;59.58;96589.66;5015739;28;20400;-77
2022/04/10 11:17:46;;;;;;;4.00;2.10;;;;;;;7.50;60.38;96589.84;5030007;28;20040;-78
2022/04/10 11:20:14;;;;;;;4.20;1.80;;;;;;;7.54;60.41;96589.47;5014554;28;20036;-78
2022/04/10 11:22:47;;;;;;;4.70;2.00;;;;;;;7.47;61.26;96590.91;5029429;28;20021;-78
2022/04/10 11:25:13;;;;;;;;;;;;;;;8.12;60.33;96596.66;5024708;28;20110;-77
2022/04/10 11:27:55;;;;;;;7.60;2.20;;;;;;;8.31;60.14;96595.84;5043512;28;19913;-78
2022/04/10 11:30:22;;;;;;;5.90;2.00;;;;;;;8.29;60.70;96582.06;5030657;28;20036;-79
2022/04/10 11:32:54;;;;;;;5.87;2.20;;;;;;;8.01;61.19;96583.66;5029942;28;20080;-79
2022/04/10 11:35:24;;;;;;;6.53;2.70;;;;;;;7.55;68.69;96583.25;5044098;28;20555;-79
2022/04/10 11:37:53;;;;;;;6.20;2.30;;;;;;;7.35;68.28;96580.69;5030683;28;20059;-78
2022/04/10 11:40:21;;;;;;;7.10;3.27;;;;;;;7.44;64.98;96577.25;5037588;28;20052;-78
2022/04/10 11:42:47;;;;;;;11.30;3.67;;;;;;;7.64;65.65;96576.38;5015061;28;20028;-78
2022/04/10 11:45:14;;;;;;;6.57;3.67;;;;;;;7.66;65.58;96579.69;5042279;28;20052;-78